首页
METAR-TAF:

METAR-TAF

机场 :

Muscle Shoals, 阿拉巴马州, 美国

纬度: 34-44-38N, 经度: 087-35-58W, 海拔: 167米

当前天气观测

该预报发布于7分钟前的03:53 UTC
风速7节,风向
温度 3°C
湿度 65%
气压 1033 hPa
能見度: 16.1公里
天空无云

METAR: KMSL 210353Z AUTO 36007KT 10SM CLR 03/M03 A3050 RMK AO2 SLP332 T00281028

时间: 22:00 (04:00 UTC)

预报

该预报发布于3小时和25分钟前的00:35 UTC
预报有效从21日的 01点(UTC)到 21日的 24点(UTC)
风速12节,风向,有时为20节阵风
能見度: 10公里
多云层高于6000英尺
从 21日的 1500点(UTC)
风速12节,风向北转东北,有时为17节阵风
能見度: 10公里
天空无云

TAF: KMSL 210035Z 2101/2124 01012G20KT P6SM BKN060 FM211500 03012G17KT P6SM SKC

超过4000个机场的气象观测和天气预报(METAR&TAF报告)。

可查询的气象台以黄色和红色小点在地图上表示。

将鼠标移到小点上方,可查看气象台名称。

然后点击查看天气观测和预报。

如需切换地图:点击带黑十字的绿色按钮放大地图;点击带横线的绿色按钮缩小地图;或者点击绿色箭头查看邻近地区的地图。


METAR-TAF: